sensor_id;sensor_type;location;lat;lon;timestamp;pressure;altitude;pressure_sealevel;temperature;humidity
78229;BME280;67502;49.142;9.124;2023-02-03T07:14:37;100778.66;;;5.53;81.59
78229;BME280;67502;49.142;9.124;2023-02-03T07:17:04;100776.03;;;5.53;81.98
78229;BME280;67502;49.142;9.124;2023-02-03T07:19:32;100762.59;;;5.62;81.14
78229;BME280;67502;49.142;9.124;2023-02-03T07:21:58;100790.22;;;5.72;79.82
78229;BME280;67502;49.142;9.124;2023-02-03T07:24:25;100799.00;;;5.71;80.50
78229;BME280;67502;49.142;9.124;2023-02-03T07:26:52;100797.41;;;5.67;80.62
78229;BME280;67502;49.142;9.124;2023-02-03T07:29:18;100812.19;;;5.70;81.03
78229;BME280;67502;49.142;9.124;2023-02-03T07:31:45;100809.75;;;5.64;81.21
78229;BME280;67502;49.142;9.124;2023-02-03T07:34:12;100814.13;;;5.63;81.22
78229;BME280;67502;49.142;9.124;2023-02-03T07:36:38;100817.22;;;5.76;80.28
78229;BME280;67502;49.142;9.124;2023-02-03T07:39:05;100818.97;;;5.77;80.12
78229;BME280;67502;49.142;9.124;2023-02-03T07:41:31;100827.63;;;5.79;79.87
78229;BME280;67502;49.142;9.124;2023-02-03T07:43:58;100823.22;;;5.80;80.26
78229;BME280;67502;49.142;9.124;2023-02-03T07:46:24;100819.66;;;5.82;80.32
78229;BME280;67502;49.142;9.124;2023-02-03T07:48:51;100822.31;;;5.81;79.63
78229;BME280;67502;49.142;9.124;2023-02-03T07:51:17;100827.63;;;5.79;80.60
78229;BME280;67502;49.142;9.124;2023-02-03T07:53:44;100821.59;;;5.77;80.49
78229;BME280;67502;49.142;9.124;2023-02-03T07:56:11;100820.75;;;5.75;81.04
78229;BME280;67502;49.142;9.124;2023-02-03T07:58:38;100847.81;;;5.77;80.12
78229;BME280;67502;49.142;9.124;2023-02-03T08:01:15;100851.53;;;5.70;81.20
78229;BME280;67502;49.142;9.124;2023-02-03T08:03:42;100838.44;;;5.68;80.95
78229;BME280;67502;49.142;9.124;2023-02-03T08:06:09;100846.38;;;5.67;80.63
78229;BME280;67502;49.142;9.124;2023-02-03T08:08:35;100863.97;;;5.63;82.20
78229;BME280;67502;49.142;9.124;2023-02-03T08:11:02;100861.25;;;5.66;81.60
78229;BME280;67502;49.142;9.124;2023-02-03T08:13:29;100868.06;;;5.72;80.80
78229;BME280;67502;49.142;9.124;2023-02-03T08:15:55;100843.06;;;5.62;81.11
78229;BME280;67502;49.142;9.124;2023-02-03T08:18:22;100824.63;;;5.63;81.51
78229;BME280;67502;49.142;9.124;2023-02-03T08:20:49;100828.31;;;5.58;81.25
78229;BME280;67502;49.142;9.124;2023-02-03T08:23:15;100833.47;;;5.61;81.05
78229;BME280;67502;49.142;9.124;2023-02-03T08:25:42;100845.63;;;5.63;80.70
78229;BME280;67502;49.142;9.124;2023-02-03T08:28:09;100835.19;;;5.62;80.83
78229;BME280;67502;49.142;9.124;2023-02-03T08:30:36;100835.94;;;5.65;81.10
78229;BME280;67502;49.142;9.124;2023-02-03T08:33:02;100848.94;;;5.68;80.73
78229;BME280;67502;49.142;9.124;2023-02-03T08:35:29;100841.84;;;5.72;80.63
78229;BME280;67502;49.142;9.124;2023-02-03T08:37:55;100833.09;;;5.73;80.02
78229;BME280;67502;49.142;9.124;2023-02-03T08:40:22;100826.31;;;5.66;80.56
78229;BME280;67502;49.142;9.124;2023-02-03T08:42:48;100823.75;;;5.64;80.11
78229;BME280;67502;49.142;9.124;2023-02-03T08:45:15;100825.47;;;5.65;80.69
78229;BME280;67502;49.142;9.124;2023-02-03T08:47:41;100819.13;;;5.71;80.38
78229;BME280;67502;49.142;9.124;2023-02-03T08:50:08;100821.44;;;5.82;79.44
78229;BME280;67502;49.142;9.124;2023-02-03T08:52:35;100820.28;;;5.89;79.38
78229;BME280;67502;49.142;9.124;2023-02-03T08:55:02;100803.00;;;5.83;80.59
78229;BME280;67502;49.142;9.124;2023-02-03T08:57:35;100809.16;;;5.82;80.55
78229;BME280;67502;49.142;9.124;2023-02-03T09:00:05;100799.47;;;5.84;80.77
78229;BME280;67502;49.142;9.124;2023-02-03T09:02:32;100803.00;;;5.83;80.82
78229;BME280;67502;49.142;9.124;2023-02-03T09:04:59;100796.22;;;5.76;81.21
78229;BME280;67502;49.142;9.124;2023-02-03T09:07:26;100804.50;;;5.90;79.62
78229;BME280;67502;49.142;9.124;2023-02-03T09:09:53;100824.59;;;5.91;79.16
78229;BME280;67502;49.142;9.124;2023-02-03T09:12:19;100813.97;;;5.96;80.02
78229;BME280;67502;49.142;9.124;2023-02-03T09:14:46;100818.00;;;6.06;79.84
78229;BME280;67502;49.142;9.124;2023-02-03T09:17:13;100823.13;;;6.09;79.58
78229;BME280;67502;49.142;9.124;2023-02-03T09:19:39;100815.66;;;6.23;79.36
78229;BME280;67502;49.142;9.124;2023-02-03T09:22:06;100812.06;;;6.26;79.25
78229;BME280;67502;49.142;9.124;2023-02-03T09:24:32;100821.88;;;6.21;79.86
78229;BME280;67502;49.142;9.124;2023-02-03T09:26:59;100802.97;;;6.60;78.48
78229;BME280;67502;49.142;9.124;2023-02-03T09:29:26;100813.28;;;7.99;73.36
78229;BME280;67502;49.142;9.124;2023-02-03T09:31:53;100818.78;;;8.75;70.63
78229;BME280;67502;49.142;9.124;2023-02-03T09:34:20;100804.31;;;8.44;70.69
78229;BME280;67502;49.142;9.124;2023-02-03T09:36:47;100810.16;;;8.10;71.65
78229;BME280;67502;49.142;9.124;2023-02-03T09:39:14;100808.16;;;7.52;73.84
78229;BME280;67502;49.142;9.124;2023-02-03T09:49:47;100813.38;;;6.86;77.23
78229;BME280;67502;49.142;9.124;2023-02-03T09:52:22;100822.75;;;6.70;77.28
78229;BME280;67502;49.142;9.124;2023-02-03T09:57:46;100811.19;;;6.51;78.78
78229;BME280;67502;49.142;9.124;2023-02-03T10:00:22;100819.34;;;6.43;79.46
78229;BME280;67502;49.142;9.124;2023-02-03T10:02:59;100811.59;;;6.40;79.18
78229;BME280;67502;49.142;9.124;2023-02-03T10:08:35;100808.69;;;6.71;78.13
78229;BME280;67502;49.142;9.124;2023-02-03T10:16:39;100808.00;;;6.66;77.25
78229;BME280;67502;49.142;9.124;2023-02-03T10:19:15;100821.94;;;6.68;77.65
78229;BME280;67502;49.142;9.124;2023-02-03T10:21:47;100813.59;;;6.80;77.31
78229;BME280;67502;49.142;9.124;2023-02-03T10:24:23;100813.31;;;7.11;76.90
78229;BME280;67502;49.142;9.124;2023-02-03T10:26:53;100816.63;;;7.60;75.17
78229;BME280;67502;49.142;9.124;2023-02-03T10:29:25;100825.69;;;7.75;73.86
78229;BME280;67502;49.142;9.124;2023-02-03T10:31:58;100834.56;;;7.51;75.31
78229;BME280;67502;49.142;9.124;2023-02-03T10:34:25;100854.66;;;7.30;75.39
78229;BME280;67502;49.142;9.124;2023-02-03T10:42:07;100845.25;;;6.77;77.53
78229;BME280;67502;49.142;9.124;2023-02-03T10:44:39;100854.38;;;6.67;77.59
78229;BME280;67502;49.142;9.124;2023-02-03T10:47:19;100843.59;;;6.74;78.65
78229;BME280;67502;49.142;9.124;2023-02-03T10:49:49;100820.47;;;6.61;78.92
78229;BME280;67502;49.142;9.124;2023-02-03T10:52:28;100828.88;;;6.45;79.66
78229;BME280;67502;49.142;9.124;2023-02-03T10:54:55;100831.28;;;6.52;79.15
78229;BME280;67502;49.142;9.124;2023-02-03T10:57:26;100816.44;;;6.51;79.65
78229;BME280;67502;49.142;9.124;2023-02-03T11:00:07;100792.41;;;6.61;79.13
78229;BME280;67502;49.142;9.124;2023-02-03T11:02:34;100788.56;;;6.46;79.30
78229;BME280;67502;49.142;9.124;2023-02-03T11:05:25;100790.28;;;6.47;78.98
78229;BME280;67502;49.142;9.124;2023-02-03T11:07:52;100777.03;;;6.51;79.18
78229;BME280;67502;49.142;9.124;2023-02-03T11:10:30;100793.34;;;6.35;80.94
78229;BME280;67502;49.142;9.124;2023-02-03T11:13:20;100793.34;;;6.35;80.65
78229;BME280;67502;49.142;9.124;2023-02-03T11:18:35;100785.34;;;6.38;79.29
78229;BME280;67502;49.142;9.124;2023-02-03T11:21:21;100775.72;;;6.39;78.89
78229;BME280;67502;49.142;9.124;2023-02-03T11:26:29;100780.75;;;6.45;77.47
78229;BME280;67502;49.142;9.124;2023-02-03T11:28:58;100777.72;;;6.56;77.51
78229;BME280;67502;49.142;9.124;2023-02-03T11:31:28;100763.13;;;6.48;77.95
78229;BME280;67502;49.142;9.124;2023-02-03T11:34:13;100737.97;;;6.41;77.73
78229;BME280;67502;49.142;9.124;2023-02-03T11:36:40;100748.16;;;6.51;77.83
78229;BME280;67502;49.142;9.124;2023-02-03T11:39:09;100739.25;;;6.55;77.13
78229;BME280;67502;49.142;9.124;2023-02-03T11:41:38;100739.25;;;6.55;77.42
78229;BME280;67502;49.142;9.124;2023-02-03T11:44:19;100752.31;;;6.56;76.71
78229;BME280;67502;49.142;9.124;2023-02-03T11:46:49;100738.50;;;6.51;77.93
78229;BME280;67502;49.142;9.124;2023-02-03T11:52:34;100740.38;;;6.47;78.19
78229;BME280;67502;49.142;9.124;2023-02-03T11:58:35;100742.78;;;6.54;77.46
78229;BME280;67502;49.142;9.124;2023-02-03T12:01:26;100750.59;;;6.55;76.50
78229;BME280;67502;49.142;9.124;2023-02-03T12:09:54;100749.53;;;6.61;75.90
78229;BME280;67502;49.142;9.124;2023-02-03T12:18:47;100721.69;;;6.55;77.18
78229;BME280;67502;49.142;9.124;2023-02-03T12:21:12;100707.66;;;6.56;76.29
78229;BME280;67502;49.142;9.124;2023-02-03T12:26:45;100681.22;;;6.61;77.58
78229;BME280;67502;49.142;9.124;2023-02-03T12:29:36;100674.25;;;6.60;77.78
78229;BME280;67502;49.142;9.124;2023-02-03T12:32:13;100675.78;;;6.65;78.18
78229;BME280;67502;49.142;9.124;2023-02-03T12:35:17;100665.69;;;6.55;78.41
78229;BME280;67502;49.142;9.124;2023-02-03T12:37:55;100652.63;;;6.53;78.15
78229;BME280;67502;49.142;9.124;2023-02-03T12:40:38;100652.81;;;6.48;78.45
78229;BME280;67502;49.142;9.124;2023-02-03T12:43:29;100664.91;;;6.53;78.41
78229;BME280;67502;49.142;9.124;2023-02-03T12:46:16;100669.31;;;6.52;78.32
78229;BME280;67502;49.142;9.124;2023-02-03T12:51:57;100656.50;;;6.43;79.35
78229;BME280;67502;49.142;9.124;2023-02-03T12:57:14;100668.75;;;6.44;78.95
78229;BME280;67502;49.142;9.124;2023-02-03T12:59:48;100674.00;;;6.44;79.71
78229;BME280;67502;49.142;9.124;2023-02-03T13:02:22;100659.09;;;6.44;78.66
78229;BME280;67502;49.142;9.124;2023-02-03T13:04:55;100653.84;;;6.44;79.36
78229;BME280;67502;49.142;9.124;2023-02-03T13:07:32;100627.56;;;6.44;78.87
78229;BME280;67502;49.142;9.124;2023-02-03T13:12:56;100646.75;;;6.46;79.99
78229;BME280;67502;49.142;9.124;2023-02-03T13:15:27;100635.50;;;6.43;79.79
78229;BME280;67502;49.142;9.124;2023-02-03T13:20:44;100627.44;;;6.47;79.36
78229;BME280;67502;49.142;9.124;2023-02-03T13:23:11;100596.63;;;6.53;79.02
78229;BME280;67502;49.142;9.124;2023-02-03T13:25:51;100610.63;;;6.52;79.05
78229;BME280;67502;49.142;9.124;2023-02-03T13:42:22;100581.44;;;6.81;76.84
78229;BME280;67502;49.142;9.124;2023-02-03T13:47:35;100586.13;;;6.95;75.23
78229;BME280;67502;49.142;9.124;2023-02-03T13:50:03;100587.91;;;6.94;75.62
78229;BME280;67502;49.142;9.124;2023-02-03T13:52:35;100600.72;;;7.02;75.51
78229;BME280;67502;49.142;9.124;2023-02-03T13:55:04;100600.59;;;7.05;75.19
78229;BME280;67502;49.142;9.124;2023-02-03T13:57:34;100598.81;;;7.06;75.06
78229;BME280;67502;49.142;9.124;2023-02-03T14:05:53;100597.84;;;7.08;75.14
78229;BME280;67502;49.142;9.124;2023-02-03T14:16:40;100585.63;;;7.07;74.45
78229;BME280;67502;49.142;9.124;2023-02-03T14:19:11;100589.88;;;7.10;74.81
78229;BME280;67502;49.142;9.124;2023-02-03T14:24:09;100601.97;;;7.14;74.09
78229;BME280;67502;49.142;9.124;2023-02-03T14:26:42;100592.31;;;7.14;73.80
78229;BME280;67502;49.142;9.124;2023-02-03T14:29:24;100587.78;;;7.18;74.56
78229;BME280;67502;49.142;9.124;2023-02-03T14:34:38;100613.97;;;7.21;73.93
78229;BME280;67502;49.142;9.124;2023-02-03T14:40:13;100617.56;;;7.18;74.60
78229;BME280;67502;49.142;9.124;2023-02-03T14:43:01;100629.84;;;7.18;74.32
78229;BME280;67502;49.142;9.124;2023-02-03T14:51:36;100643.16;;;7.15;74.64
78229;BME280;67502;49.142;9.124;2023-02-03T14:59:52;100636.97;;;7.16;74.82
78229;BME280;67502;49.142;9.124;2023-02-03T15:02:24;100628.22;;;7.15;74.65
78229;BME280;67502;49.142;9.124;2023-02-03T15:07:40;100640.03;;;7.05;76.17
78229;BME280;67502;49.142;9.124;2023-02-03T15:10:17;100634.75;;;7.05;76.52
78229;BME280;67502;49.142;9.124;2023-02-03T15:12:46;100644.69;;;6.98;76.49
78229;BME280;67502;49.142;9.124;2023-02-03T15:15:20;100651.03;;;6.93;77.23
78229;BME280;67502;49.142;9.124;2023-02-03T15:17:50;100640.53;;;6.93;78.18
78229;BME280;67502;49.142;9.124;2023-02-03T15:20:24;100628.69;;;6.83;78.47
78229;BME280;67502;49.142;9.124;2023-02-03T15:22:51;100638.19;;;6.85;78.34
78229;BME280;67502;49.142;9.124;2023-02-03T15:25:20;100635.72;;;6.82;79.04
78229;BME280;67502;49.142;9.124;2023-02-03T15:27:47;100654.22;;;6.79;78.98
78229;BME280;67502;49.142;9.124;2023-02-03T15:32:47;100647.44;;;6.73;79.08
78229;BME280;67502;49.142;9.124;2023-02-03T15:35:18;100657.03;;;6.74;79.63
78229;BME280;67502;49.142;9.124;2023-02-03T15:37:52;100661.56;;;6.71;79.75
78229;BME280;67502;49.142;9.124;2023-02-03T15:40:22;100666.91;;;6.68;80.61
78229;BME280;67502;49.142;9.124;2023-02-03T15:43:05;100648.13;;;6.57;81.89
78229;BME280;67502;49.142;9.124;2023-02-03T15:46:12;100643.66;;;6.59;80.88
78229;BME280;67502;49.142;9.124;2023-02-03T15:48:48;100641.09;;;6.57;81.20
78229;BME280;67502;49.142;9.124;2023-02-03T15:51:19;100635.66;;;6.62;80.74
78229;BME280;67502;49.142;9.124;2023-02-03T15:56:34;100648.72;;;6.63;80.68
78229;BME280;67502;49.142;9.124;2023-02-03T15:59:05;100643.66;;;6.59;81.37
78229;BME280;67502;49.142;9.124;2023-02-03T16:01:32;100647.00;;;6.62;81.16
78229;BME280;67502;49.142;9.124;2023-02-03T16:03:59;100667.00;;;6.66;82.77
78229;BME280;67502;49.142;9.124;2023-02-03T16:06:33;100682.22;;;6.80;81.56
78229;BME280;67502;49.142;9.124;2023-02-03T16:09:04;100674.03;;;6.88;81.79
78229;BME280;67502;49.142;9.124;2023-02-03T16:11:36;100676.47;;;6.92;80.38
78229;BME280;67502;49.142;9.124;2023-02-03T16:14:06;100655.75;;;6.85;80.33
78229;BME280;67502;49.142;9.124;2023-02-03T16:16:34;100664.56;;;6.84;79.89
78229;BME280;67502;49.142;9.124;2023-02-03T16:19:11;100651.59;;;6.79;79.47
78229;BME280;67502;49.142;9.124;2023-02-03T16:33:00;100651.91;;;6.71;79.63
78229;BME280;67502;49.142;9.124;2023-02-03T16:35:46;100662.41;;;6.71;80.20
78229;BME280;67502;49.142;9.124;2023-02-03T16:38:31;100637.91;;;6.71;80.11
78229;BME280;67502;49.142;9.124;2023-02-03T16:41:17;100658.94;;;6.71;79.92
78229;BME280;67502;49.142;9.124;2023-02-03T16:44:02;100658.25;;;6.66;79.67
78229;BME280;67502;49.142;9.124;2023-02-03T16:46:47;100659.09;;;6.66;79.73
78229;BME280;67502;49.142;9.124;2023-02-03T16:49:33;100654.47;;;6.73;79.54
78229;BME280;67502;49.142;9.124;2023-02-03T16:52:18;100661.56;;;6.71;80.31
78229;BME280;67502;49.142;9.124;2023-02-03T16:54:44;100654.34;;;6.76;79.00
78229;BME280;67502;49.142;9.124;2023-02-03T16:57:11;100648.34;;;6.72;80.07
78229;BME280;67502;49.142;9.124;2023-02-03T16:59:37;100663.03;;;6.78;79.88
78229;BME280;67502;49.142;9.124;2023-02-03T17:02:04;100651.78;;;6.74;79.67
78229;BME280;67502;49.142;9.124;2023-02-03T17:04:31;100666.69;;;6.74;80.08
78229;BME280;67502;49.142;9.124;2023-02-03T17:06:58;100663.03;;;6.78;79.62
78229;BME280;67502;49.142;9.124;2023-02-03T17:09:24;100666.63;;;6.76;79.64
78229;BME280;67502;49.142;9.124;2023-02-03T17:11:51;100663.78;;;6.82;79.50
78229;BME280;67502;49.142;9.124;2023-02-03T17:14:17;100662.88;;;6.81;78.57
78229;BME280;67502;49.142;9.124;2023-02-03T17:16:44;100680.38;;;6.82;78.67
78229;BME280;67502;49.142;9.124;2023-02-03T17:19:11;100687.47;;;6.80;79.46
78229;BME280;67502;49.142;9.124;2023-02-03T17:21:37;100690.94;;;6.81;79.06
78229;BME280;67502;49.142;9.124;2023-02-03T17:24:04;100693.56;;;6.81;79.42
78229;BME280;67502;49.142;9.124;2023-02-03T17:26:31;100692.72;;;6.80;79.34
78229;BME280;67502;49.142;9.124;2023-02-03T17:28:59;100688.28;;;6.82;78.66
78229;BME280;67502;49.142;9.124;2023-02-03T17:31:29;100685.50;;;6.85;79.12
78229;BME280;67502;49.142;9.124;2023-02-03T17:33:57;100704.94;;;6.81;78.52
78229;BME280;67502;49.142;9.124;2023-02-03T17:36:24;100703.84;;;6.87;78.94
78229;BME280;67502;49.142;9.124;2023-02-03T17:38:55;100704.72;;;6.87;78.98
78229;BME280;67502;49.142;9.124;2023-02-03T17:41:42;100724.13;;;6.83;79.05
78229;BME280;67502;49.142;9.124;2023-02-03T17:44:26;100719.00;;;6.80;79.53
78229;BME280;67502;49.142;9.124;2023-02-03T17:47:10;100715.34;;;6.84;79.68
78229;BME280;67502;49.142;9.124;2023-02-03T17:49:54;100700.41;;;6.85;79.47
78229;BME280;67502;49.142;9.124;2023-02-03T17:52:39;100706.78;;;6.79;80.79
78229;BME280;67502;49.142;9.124;2023-02-03T17:55:23;100717.28;;;6.79;80.15
78229;BME280;67502;49.142;9.124;2023-02-03T17:57:49;100717.41;;;6.76;80.67
78229;BME280;67502;49.142;9.124;2023-02-03T18:00:16;100722.78;;;6.73;81.84
78229;BME280;67502;49.142;9.124;2023-02-03T18:02:43;100723.88;;;6.67;81.65
78229;BME280;67502;49.142;9.124;2023-02-03T18:05:10;100714.38;;;6.63;82.55
78229;BME280;67502;49.142;9.124;2023-02-03T18:07:36;100725.88;;;6.61;81.97
78229;BME280;67502;49.142;9.124;2023-02-03T18:10:03;100739.91;;;6.60;82.21
78229;BME280;67502;49.142;9.124;2023-02-03T18:12:29;100723.38;;;6.58;82.66
78229;BME280;67502;49.142;9.124;2023-02-03T18:14:56;100735.59;;;6.59;82.23
78229;BME280;67502;49.142;9.124;2023-02-03T18:17:23;100739.03;;;6.61;82.55
78229;BME280;67502;49.142;9.124;2023-02-03T18:19:49;100740.91;;;6.57;82.57
78229;BME280;67502;49.142;9.124;2023-02-03T18:22:21;100738.09;;;6.62;83.52
78229;BME280;67502;49.142;9.124;2023-02-03T18:24:48;100749.63;;;6.58;83.44
78229;BME280;67502;49.142;9.124;2023-02-03T18:27:18;100724.22;;;6.58;83.42
78229;BME280;67502;49.142;9.124;2023-02-03T18:29:46;100721.69;;;6.55;83.85
78229;BME280;67502;49.142;9.124;2023-02-03T18:32:14;100720.91;;;6.53;83.21
78229;BME280;67502;49.142;9.124;2023-02-03T18:34:41;100722.56;;;6.56;83.18
78229;BME280;67502;49.142;9.124;2023-02-03T18:37:08;100717.09;;;6.62;83.83
78229;BME280;67502;49.142;9.124;2023-02-03T18:39:35;100720.16;;;6.73;83.97
78229;BME280;67502;49.142;9.124;2023-02-03T18:42:02;100720.16;;;6.73;82.76
78229;BME280;67502;49.142;9.124;2023-02-03T18:44:29;100716.91;;;6.66;83.54
78229;BME280;67502;49.142;9.124;2023-02-03T18:46:57;100709.94;;;6.65;83.41
78229;BME280;67502;49.142;9.124;2023-02-03T18:49:32;100721.34;;;6.64;83.49
78229;BME280;67502;49.142;9.124;2023-02-03T18:51:59;100714.28;;;6.66;83.06
78229;BME280;67502;49.142;9.124;2023-02-03T18:54:26;100712.50;;;6.67;83.45
78229;BME280;67502;49.142;9.124;2023-02-03T18:56:56;100739.63;;;6.67;83.42
78229;BME280;67502;49.142;9.124;2023-02-03T18:59:24;100732.59;;;6.68;83.47
78229;BME280;67502;49.142;9.124;2023-02-03T19:01:51;100731.84;;;6.64;82.80
78229;BME280;67502;49.142;9.124;2023-02-03T19:04:18;100728.28;;;6.67;83.65
78229;BME280;67502;49.142;9.124;2023-02-03T19:06:44;100720.38;;;6.67;82.84
78229;BME280;67502;49.142;9.124;2023-02-03T19:09:12;100721.19;;;6.69;83.31
78229;BME280;67502;49.142;9.124;2023-02-03T19:11:40;100729.09;;;6.69;82.70
78229;BME280;67502;49.142;9.124;2023-02-03T19:14:07;100726.31;;;6.72;83.02
78229;BME280;67502;49.142;9.124;2023-02-03T19:16:33;100725.44;;;6.73;82.98
78229;BME280;67502;49.142;9.124;2023-02-03T19:19:00;100734.19;;;6.72;83.44
78229;BME280;67502;49.142;9.124;2023-02-03T19:21:26;100740.38;;;6.71;82.81
78229;BME280;67502;49.142;9.124;2023-02-03T19:23:53;100742.09;;;6.72;83.31
78229;BME280;67502;49.142;9.124;2023-02-03T19:26:19;100743.06;;;6.69;83.39
78229;BME280;67502;49.142;9.124;2023-02-03T19:28:46;100742.91;;;6.74;83.47
78229;BME280;67502;49.142;9.124;2023-02-03T19:31:13;100751.69;;;6.73;83.43
78229;BME280;67502;49.142;9.124;2023-02-03T19:33:40;100743.81;;;6.73;83.85
78229;BME280;67502;49.142;9.124;2023-02-03T19:36:08;100740.38;;;6.71;83.49
78229;BME280;67502;49.142;9.124;2023-02-03T19:38:36;100740.63;;;6.65;84.32
78229;BME280;67502;49.142;9.124;2023-02-03T19:41:02;100753.78;;;6.63;84.80
78229;BME280;67502;49.142;9.124;2023-02-03T19:43:29;100766.00;;;6.64;84.26
78229;BME280;67502;49.142;9.124;2023-02-03T19:45:56;100760.75;;;6.64;84.17
78229;BME280;67502;49.142;9.124;2023-02-03T19:48:23;100766.75;;;6.68;84.04
78229;BME280;67502;49.142;9.124;2023-02-03T19:50:50;100773.19;;;6.61;84.76
78229;BME280;67502;49.142;9.124;2023-02-03T19:53:16;100769.34;;;6.69;84.08
78229;BME280;67502;49.142;9.124;2023-02-03T19:55:44;100764.84;;;6.73;84.29
78229;BME280;67502;49.142;9.124;2023-02-03T19:58:13;100761.91;;;6.81;83.97
78229;BME280;67502;49.142;9.124;2023-02-03T20:00:40;100763.66;;;6.80;83.62
78229;BME280;67502;49.142;9.124;2023-02-03T20:03:06;100747.72;;;6.85;82.18
78229;BME280;67502;49.142;9.124;2023-02-03T20:05:34;100759.09;;;6.85;82.29
78229;BME280;67502;49.142;9.124;2023-02-03T20:08:02;100770.53;;;6.84;82.84
78229;BME280;67502;49.142;9.124;2023-02-03T20:10:28;100750.16;;;6.89;82.48
78229;BME280;67502;49.142;9.124;2023-02-03T20:12:55;100748.47;;;6.88;82.37
78229;BME280;67502;49.142;9.124;2023-02-03T20:15:22;100736.19;;;6.89;82.44
78229;BME280;67502;49.142;9.124;2023-02-03T20:17:48;100740.03;;;6.80;82.46
78229;BME280;67502;49.142;9.124;2023-02-03T20:20:15;100745.94;;;6.85;83.19
78229;BME280;67502;49.142;9.124;2023-02-03T20:22:45;100752.88;;;6.88;82.74
78229;BME280;67502;49.142;9.124;2023-02-03T20:25:12;100764.13;;;6.91;82.51
78229;BME280;67502;49.142;9.124;2023-02-03T20:27:39;100757.91;;;6.94;82.29
78229;BME280;67502;49.142;9.124;2023-02-03T20:30:06;100765.72;;;6.95;82.43
78229;BME280;67502;49.142;9.124;2023-02-03T20:32:32;100755.09;;;6.98;81.91
78229;BME280;67502;49.142;9.124;2023-02-03T20:34:59;100761.13;;;7.01;81.95
78229;BME280;67502;49.142;9.124;2023-02-03T20:37:26;100768.09;;;7.02;82.30
78229;BME280;67502;49.142;9.124;2023-02-03T20:39:53;100774.16;;;7.04;82.28
78229;BME280;67502;49.142;9.124;2023-02-03T20:42:19;100772.31;;;7.06;82.48
78229;BME280;67502;49.142;9.124;2023-02-03T20:44:46;100773.06;;;7.09;81.63
78229;BME280;67502;49.142;9.124;2023-02-03T20:47:14;100789.69;;;7.10;81.40
78229;BME280;67502;49.142;9.124;2023-02-03T20:49:44;100787.19;;;7.07;81.38
78229;BME280;67502;49.142;9.124;2023-02-03T20:52:12;100783.00;;;7.01;81.52
78229;BME280;67502;49.142;9.124;2023-02-03T20:54:39;100781.03;;;7.08;82.87
78229;BME280;67502;49.142;9.124;2023-02-03T20:57:15;100776.25;;;7.17;82.19
78229;BME280;67502;49.142;9.124;2023-02-03T20:59:43;100778.59;;;7.25;81.14
78229;BME280;67502;49.142;9.124;2023-02-03T21:02:21;100779.22;;;7.32;81.43
78229;BME280;67502;49.142;9.124;2023-02-03T21:04:49;100788.81;;;7.33;81.31
78229;BME280;67502;49.142;9.124;2023-02-03T21:07:26;100786.09;;;7.34;80.65
78229;BME280;67502;49.142;9.124;2023-02-03T21:09:58;100778.31;;;7.31;81.05
78229;BME280;67502;49.142;9.124;2023-02-03T21:12:26;100811.84;;;7.26;80.55
78229;BME280;67502;49.142;9.124;2023-02-03T21:14:53;100814.84;;;7.17;81.83
78229;BME280;67502;49.142;9.124;2023-02-03T21:17:24;100799.91;;;7.17;81.84
78229;BME280;67502;49.142;9.124;2023-02-03T21:19:52;100790.31;;;7.16;81.80
78229;BME280;67502;49.142;9.124;2023-02-03T21:22:26;100797.56;;;7.10;82.38
78229;BME280;67502;49.142;9.124;2023-02-03T21:24:55;100795.09;;;7.07;81.89
78229;BME280;67502;49.142;9.124;2023-02-03T21:27:30;100817.19;;;7.01;82.46
78229;BME280;67502;49.142;9.124;2023-02-03T21:29:59;100822.06;;;6.88;83.28
78229;BME280;67502;49.142;9.124;2023-02-03T21:32:39;100828.91;;;6.92;83.20
78229;BME280;67502;49.142;9.124;2023-02-03T21:37:53;100812.97;;;6.97;83.06
78229;BME280;67502;49.142;9.124;2023-02-03T21:40:25;100804.22;;;6.96;82.82
78229;BME280;67502;49.142;9.124;2023-02-03T21:42:52;100788.25;;;7.03;82.83
78229;BME280;67502;49.142;9.124;2023-02-03T21:45:33;100804.97;;;7.00;83.04
78229;BME280;67502;49.142;9.124;2023-02-03T21:50:45;100811.19;;;6.97;83.49
78229;BME280;67502;49.142;9.124;2023-02-03T21:55:40;100811.19;;;6.97;83.07
78229;BME280;67502;49.142;9.124;2023-02-03T22:00:50;100827.88;;;6.96;83.34
78229;BME280;67502;49.142;9.124;2023-02-03T22:03:29;100819.78;;;7.03;83.05
